createdAt,value
2018-03-17T00:02:26.679Z,12.23
2018-03-17T00:04:55.152Z,28.97
2018-03-17T00:07:23.531Z,13.53
2018-03-17T00:09:51.855Z,16.90
2018-03-17T00:12:20.175Z,14.50
2018-03-17T00:14:48.482Z,12.87
2018-03-17T00:17:16.810Z,23.03
2018-03-17T00:19:45.212Z,8.87
2018-03-17T00:22:13.612Z,8.60
2018-03-17T00:24:41.963Z,16.13
2018-03-17T00:27:10.346Z,16.60
2018-03-17T00:29:38.723Z,13.77
2018-03-17T00:32:07.050Z,18.17
2018-03-17T00:34:35.366Z,14.70
2018-03-17T00:37:03.723Z,20.70
2018-03-17T00:39:32.046Z,12.17
2018-03-17T00:42:00.374Z,12.73
2018-03-17T00:44:28.703Z,20.03
2018-03-17T00:46:57.068Z,20.93
2018-03-17T00:49:25.392Z,17.67
2018-03-17T00:51:53.695Z,24.37
2018-03-17T00:54:22.018Z,26.17
2018-03-17T00:56:50.342Z,18.30
2018-03-17T00:59:18.758Z,19.97
2018-03-17T01:01:47.137Z,23.53
2018-03-17T01:04:15.522Z,20.97
2018-03-17T01:06:43.894Z,17.13
2018-03-17T01:09:12.210Z,32.07
2018-03-17T01:11:40.544Z,14.30
2018-03-17T01:14:08.856Z,22.97
2018-03-17T01:16:37.183Z,14.57
2018-03-17T01:19:05.503Z,14.50
2018-03-17T01:21:33.818Z,11.40
2018-03-17T01:24:02.239Z,16.40
2018-03-17T01:26:30.542Z,15.60
2018-03-17T01:28:58.866Z,20.53
2018-03-17T01:31:27.178Z,13.80
2018-03-17T01:33:55.490Z,20.37
2018-03-17T01:36:23.816Z,16.97
2018-03-17T01:38:52.186Z,11.70
2018-03-17T01:41:20.584Z,15.10
2018-03-17T01:43:48.942Z,15.20
2018-03-17T01:46:17.258Z,18.10
2018-03-17T01:48:45.595Z,18.87
2018-03-17T01:51:13.885Z,12.83
2018-03-17T01:53:42.215Z,11.77
2018-03-17T01:56:10.532Z,18.70
2018-03-17T01:58:38.919Z,15.63
2018-03-17T02:01:07.211Z,15.00
2018-03-17T02:03:35.575Z,18.07
2018-03-17T02:06:03.890Z,15.70
2018-03-17T02:08:32.215Z,16.90
2018-03-17T02:11:00.591Z,17.57
2018-03-17T02:13:28.971Z,17.80
2018-03-17T02:15:57.302Z,16.83
2018-03-17T02:18:25.622Z,13.63
2018-03-17T02:20:53.994Z,19.87
2018-03-17T02:23:22.390Z,26.47
2018-03-17T02:25:50.764Z,17.70
2018-03-17T02:28:19.085Z,19.40
2018-03-17T02:30:47.516Z,27.93
2018-03-17T02:33:15.895Z,22.20
2018-03-17T02:35:44.232Z,16.50
2018-03-17T02:38:12.554Z,14.97
2018-03-17T02:40:41.770Z,23.50
2018-03-17T02:43:10.092Z,36.20
2018-03-17T02:45:38.505Z,18.13
2018-03-17T02:48:06.896Z,22.83
2018-03-17T02:50:35.228Z,15.10
2018-03-17T02:53:03.567Z,22.10
2018-03-17T02:55:31.895Z,15.93
2018-03-17T02:58:01.197Z,22.23
2018-03-17T03:00:29.599Z,19.03
2018-03-17T03:02:58.087Z,17.50
2018-03-17T03:05:27.360Z,22.30
2018-03-17T03:07:55.871Z,23.40
2018-03-17T03:10:24.183Z,17.07
2018-03-17T03:12:52.523Z,19.03
2018-03-17T03:15:20.896Z,19.23
2018-03-17T03:17:49.226Z,20.30
2018-03-17T03:20:17.625Z,15.90
2018-03-17T03:22:46.018Z,17.10
2018-03-17T03:25:14.404Z,12.00
2018-03-17T03:27:42.730Z,23.20
2018-03-17T03:30:11.045Z,22.20
2018-03-17T03:32:39.381Z,18.20
2018-03-17T03:35:07.735Z,20.30
2018-03-17T03:37:36.035Z,13.57
2018-03-17T03:40:04.356Z,12.60
2018-03-17T03:42:32.708Z,21.63
2018-03-17T03:45:01.015Z,18.30
2018-03-17T03:47:29.367Z,19.60
2018-03-17T03:49:57.678Z,12.13
2018-03-17T03:52:26.057Z,15.83
2018-03-17T03:54:54.429Z,11.50
2018-03-17T03:57:22.778Z,22.40
2018-03-17T03:59:51.083Z,17.93
2018-03-17T04:02:19.463Z,15.60
2018-03-17T04:04:47.797Z,23.37
2018-03-17T04:07:16.118Z,14.97
2018-03-17T04:09:44.500Z,13.53
2018-03-17T04:12:12.880Z,12.77
2018-03-17T04:14:41.262Z,12.93
2018-03-17T04:17:09.603Z,14.83
2018-03-17T04:19:37.942Z,12.10
2018-03-17T04:22:06.258Z,11.47
2018-03-17T04:24:34.590Z,15.07
2018-03-17T04:27:02.950Z,12.00
2018-03-17T04:29:31.279Z,14.47
2018-03-17T04:31:59.586Z,22.50
2018-03-17T04:34:27.910Z,14.13
2018-03-17T04:36:57.285Z,12.37
2018-03-17T04:39:25.614Z,22.77
2018-03-17T04:41:53.931Z,12.90
2018-03-17T04:44:22.251Z,12.30
2018-03-17T04:46:50.598Z,10.13
2018-03-17T04:49:18.922Z,11.90
2018-03-17T04:51:47.293Z,13.27
2018-03-17T04:54:15.606Z,15.00
2018-03-17T04:56:43.922Z,17.13
2018-03-17T04:59:12.269Z,16.03
2018-03-17T05:01:40.658Z,18.30
2018-03-17T05:04:08.987Z,14.20
2018-03-17T05:06:37.314Z,17.43
2018-03-17T05:09:05.653Z,16.07
2018-03-17T05:11:33.975Z,20.73
2018-03-17T05:14:02.334Z,20.50
2018-03-17T05:16:30.712Z,19.30
2018-03-17T05:18:59.091Z,19.23
2018-03-17T05:21:27.470Z,18.03
2018-03-17T05:23:55.799Z,17.67
2018-03-17T05:26:24.129Z,14.13
2018-03-17T05:28:52.451Z,17.87
2018-03-17T05:31:20.894Z,11.80
2018-03-17T05:33:49.264Z,18.30
2018-03-17T05:36:17.582Z,20.63
2018-03-17T05:38:45.901Z,17.50
2018-03-17T05:41:14.294Z,15.40
2018-03-17T05:43:42.603Z,12.47
2018-03-17T05:46:10.930Z,12.00
2018-03-17T05:48:39.246Z,11.60
2018-03-17T05:51:07.700Z,13.03
2018-03-17T05:53:36.008Z,15.80
2018-03-17T05:56:04.362Z,11.50
2018-03-17T05:58:32.715Z,10.00
2018-03-17T06:01:01.864Z,15.07
2018-03-17T06:03:30.218Z,10.77
2018-03-17T06:05:58.535Z,27.87
2018-03-17T06:08:26.967Z,24.93
2018-03-17T06:10:55.279Z,18.60
2018-03-17T06:13:23.610Z,27.10
2018-03-17T06:16:03.875Z,20.57
2018-03-17T06:18:32.218Z,20.40
2018-03-17T06:21:00.538Z,23.90
2018-03-17T06:23:28.880Z,19.67
2018-03-17T06:25:57.214Z,18.80
2018-03-17T06:28:25.560Z,21.97
2018-03-17T06:30:53.884Z,16.83
2018-03-17T06:33:22.223Z,20.60
2018-03-17T06:35:50.563Z,20.80
2018-03-17T06:38:18.971Z,17.40
2018-03-17T06:40:47.385Z,21.07
2018-03-17T06:43:15.703Z,21.17
2018-03-17T06:45:44.044Z,20.23
2018-03-17T06:48:12.383Z,21.10
2018-03-17T06:50:40.712Z,20.73
2018-03-17T06:53:09.027Z,24.93
2018-03-17T06:55:37.414Z,19.90
2018-03-17T06:58:05.810Z,20.40
2018-03-17T07:00:34.156Z,20.70
2018-03-17T07:03:02.550Z,25.40
2018-03-17T07:05:30.903Z,26.90
2018-03-17T07:08:00.202Z,25.13
2018-03-17T07:10:28.607Z,31.70
2018-03-17T07:12:56.942Z,25.67
2018-03-17T07:15:25.371Z,27.20
2018-03-17T07:17:53.704Z,26.47
2018-03-17T07:20:22.044Z,27.63
2018-03-17T07:22:50.425Z,33.23
2018-03-17T07:25:18.814Z,32.33
2018-03-17T07:27:47.083Z,26.10
2018-03-17T07:30:15.423Z,29.33
2018-03-17T07:32:43.751Z,30.43
2018-03-17T07:35:12.083Z,30.00
2018-03-17T07:37:40.411Z,25.60
2018-03-17T07:40:08.751Z,29.90
2018-03-17T07:42:37.083Z,30.30
2018-03-17T07:45:05.426Z,30.63
2018-03-17T07:47:33.738Z,29.00
2018-03-17T07:50:02.154Z,28.80
2018-03-17T07:52:30.500Z,32.60
2018-03-17T07:54:59.824Z,33.37
2018-03-17T07:57:28.137Z,31.93
2018-03-17T07:59:56.489Z,37.10
2018-03-17T08:02:24.904Z,39.40
2018-03-17T08:04:53.251Z,33.37
2018-03-17T08:07:21.728Z,38.93
2018-03-17T08:09:50.058Z,42.60
2018-03-17T08:12:18.500Z,33.80
2018-03-17T08:14:46.913Z,40.40
2018-03-17T08:17:15.251Z,39.50
2018-03-17T08:19:43.570Z,43.93
2018-03-17T08:22:11.915Z,48.27
2018-03-17T08:24:40.231Z,57.43
2018-03-17T08:27:08.652Z,43.40
2018-03-17T08:29:36.979Z,40.20
2018-03-17T08:32:05.308Z,38.67
2018-03-17T08:34:33.634Z,52.90
2018-03-17T08:37:02.062Z,43.27
2018-03-17T08:39:30.407Z,47.67
2018-03-17T08:41:58.745Z,42.63
2018-03-17T08:44:27.054Z,40.90
2018-03-17T08:46:55.482Z,49.00
2018-03-17T08:49:23.800Z,40.70
2018-03-17T08:51:52.135Z,42.07
2018-03-17T08:54:20.507Z,40.13
2018-03-17T08:56:48.863Z,39.50
2018-03-17T08:59:17.367Z,40.67
2018-03-17T09:01:45.699Z,44.33
2018-03-17T09:04:14.021Z,40.33
2018-03-17T09:06:42.407Z,43.90
2018-03-17T09:09:10.795Z,43.60
2018-03-17T09:11:39.131Z,45.17
2018-03-17T09:14:07.561Z,42.40
2018-03-17T09:16:35.895Z,48.27
2018-03-17T09:19:04.298Z,42.03
2018-03-17T09:21:32.642Z,42.17
2018-03-17T09:24:00.980Z,44.93
2018-03-17T09:26:29.294Z,43.00
2018-03-17T09:28:57.624Z,42.70
2018-03-17T09:31:25.960Z,44.00
2018-03-17T09:33:54.287Z,42.83
2018-03-17T09:36:22.608Z,40.20
2018-03-17T09:38:50.976Z,38.43
2018-03-17T09:41:19.315Z,39.67
2018-03-17T09:43:47.659Z,41.23
2018-03-17T09:46:16.039Z,44.50
2018-03-17T09:48:44.434Z,41.73
2018-03-17T09:51:12.798Z,41.10
2018-03-17T09:53:41.174Z,38.87
2018-03-17T09:56:09.495Z,38.37
2018-03-17T09:58:37.906Z,39.67
2018-03-17T10:01:06.218Z,48.40
2018-03-17T10:03:34.617Z,46.63
2018-03-17T10:06:02.957Z,42.93
2018-03-17T10:08:31.298Z,48.30
2018-03-17T10:10:59.617Z,45.50
2018-03-17T10:13:28.004Z,46.93
2018-03-17T10:15:57.336Z,44.07
2018-03-17T10:18:25.686Z,47.43
2018-03-17T10:20:54.052Z,53.30
2018-03-17T10:23:22.398Z,57.33
2018-03-17T10:25:50.732Z,54.27
2018-03-17T10:28:19.082Z,64.73
2018-03-17T10:30:47.407Z,58.00
2018-03-17T10:33:15.842Z,62.33
2018-03-17T10:35:44.225Z,58.77
2018-03-17T10:38:12.589Z,67.27
2018-03-17T10:40:40.917Z,67.80
2018-03-17T10:43:09.248Z,66.53
2018-03-17T10:45:37.590Z,60.90
2018-03-17T10:48:05.929Z,71.93
2018-03-17T10:50:34.286Z,75.97
2018-03-17T10:53:02.629Z,80.53
2018-03-17T10:55:31.046Z,78.47
2018-03-17T10:57:59.379Z,80.20
2018-03-17T11:00:27.724Z,88.77
2018-03-17T11:02:56.039Z,91.77
2018-03-17T11:05:24.715Z,82.63
2018-03-17T11:07:53.035Z,97.73
2018-03-17T11:10:21.458Z,88.07
2018-03-17T11:12:49.830Z,82.90
2018-03-17T11:15:18.155Z,95.33
2018-03-17T11:17:46.510Z,97.33
2018-03-17T11:20:14.842Z,82.90
2018-03-17T11:22:43.168Z,90.47
2018-03-17T11:25:11.502Z,92.77
2018-03-17T11:27:39.817Z,83.30
2018-03-17T11:30:08.256Z,71.73
2018-03-17T11:32:36.622Z,77.73
2018-03-17T11:35:04.983Z,80.30
2018-03-17T11:37:33.311Z,88.33
2018-03-17T11:40:01.637Z,78.80
2018-03-17T11:42:29.985Z,83.47
2018-03-17T11:44:58.403Z,79.73
2018-03-17T11:47:26.726Z,82.13
2018-03-17T11:49:55.054Z,81.53
2018-03-17T11:52:23.400Z,80.37
2018-03-17T11:54:51.758Z,83.57
2018-03-17T11:57:20.096Z,88.90
2018-03-17T11:59:48.425Z,77.47
2018-03-17T12:02:16.748Z,78.80
2018-03-17T12:04:45.102Z,77.27
2018-03-17T12:07:13.448Z,68.43
2018-03-17T12:09:41.816Z,80.73
2018-03-17T12:12:10.195Z,75.40
2018-03-17T12:14:38.531Z,70.70
2018-03-17T12:17:07.643Z,70.97
2018-03-17T12:19:35.959Z,65.13
2018-03-17T12:22:04.391Z,65.83
2018-03-17T12:24:32.771Z,62.77
2018-03-17T12:27:01.171Z,67.13
2018-03-17T12:29:29.532Z,63.30
2018-03-17T12:31:57.907Z,64.97
2018-03-17T12:34:26.239Z,57.50
2018-03-17T12:36:54.687Z,65.00
2018-03-17T12:39:23.001Z,59.67
2018-03-17T12:41:51.421Z,59.70
2018-03-17T12:44:19.757Z,60.27
2018-03-17T12:46:48.165Z,68.13
2018-03-17T12:49:16.550Z,71.37
2018-03-17T12:51:44.940Z,59.83
2018-03-17T12:54:13.300Z,63.47
2018-03-17T12:56:41.640Z,64.90
2018-03-17T12:59:11.055Z,61.03
2018-03-17T13:01:39.395Z,65.50
2018-03-17T13:04:07.867Z,56.63
2018-03-17T13:06:36.204Z,59.97
2018-03-17T13:09:04.570Z,60.37
2018-03-17T13:11:33.563Z,67.03
2018-03-17T13:14:01.884Z,53.27
2018-03-17T13:16:30.206Z,68.53
2018-03-17T13:18:58.558Z,54.10
2018-03-17T13:21:26.873Z,61.83
2018-03-17T13:23:55.218Z,56.83
2018-03-17T13:26:23.544Z,52.40
2018-03-17T13:28:51.944Z,51.30
2018-03-17T13:31:20.292Z,48.47
2018-03-17T13:33:48.636Z,47.03
2018-03-17T13:36:28.819Z,56.27
2018-03-17T13:38:57.157Z,48.77
2018-03-17T13:41:25.481Z,55.90
2018-03-17T13:43:53.810Z,44.03
2018-03-17T13:46:22.162Z,47.37
2018-03-17T13:48:50.506Z,51.37
2018-03-17T13:51:18.874Z,48.07
2018-03-17T13:53:47.227Z,47.30
2018-03-17T13:56:15.544Z,47.60
2018-03-17T13:58:43.924Z,48.37
2018-03-17T14:01:12.215Z,49.13
2018-03-17T14:03:40.590Z,45.90
2018-03-17T14:06:08.906Z,43.33
2018-03-17T14:08:37.271Z,48.43
2018-03-17T14:11:05.599Z,55.20
2018-03-17T14:13:34.007Z,41.70
2018-03-17T14:16:02.387Z,43.70
2018-03-17T14:18:30.730Z,41.97
2018-03-17T14:20:59.142Z,45.33
2018-03-17T14:23:27.476Z,40.90
2018-03-17T14:25:56.792Z,48.60
2018-03-17T14:28:25.113Z,64.63
2018-03-17T14:30:53.481Z,45.03
2018-03-17T14:33:21.987Z,45.40
2018-03-17T14:35:50.731Z,48.27
2018-03-17T14:38:19.150Z,44.37
2018-03-17T14:40:47.519Z,51.03
2018-03-17T14:43:15.883Z,49.00
2018-03-17T14:45:44.264Z,40.63
2018-03-17T14:48:12.627Z,45.20
2018-03-17T14:50:40.963Z,45.33
2018-03-17T14:53:09.404Z,45.90
2018-03-17T14:55:37.718Z,41.23
2018-03-17T14:58:06.111Z,35.33
2018-03-17T15:00:34.522Z,41.93
2018-03-17T15:03:02.847Z,40.23
2018-03-17T15:05:31.170Z,39.53
2018-03-17T15:07:59.554Z,42.20
2018-03-17T15:10:27.888Z,35.50
2018-03-17T15:12:56.304Z,39.50
2018-03-17T15:15:24.630Z,38.73
2018-03-17T15:17:52.958Z,41.70
2018-03-17T15:20:21.296Z,43.40
2018-03-17T15:22:49.720Z,40.07
2018-03-17T15:25:18.167Z,38.57
2018-03-17T15:27:46.507Z,40.03
2018-03-17T15:30:14.855Z,35.50
2018-03-17T15:32:43.184Z,36.97
2018-03-17T15:35:11.539Z,39.27
2018-03-17T15:37:39.869Z,31.60
2018-03-17T15:40:08.212Z,42.83
2018-03-17T15:42:36.516Z,34.77
2018-03-17T15:45:05.755Z,38.53
2018-03-17T15:47:34.116Z,42.13
2018-03-17T15:50:02.492Z,40.70
2018-03-17T15:52:30.810Z,36.10
2018-03-17T15:54:59.166Z,34.77
2018-03-17T15:57:27.531Z,35.23
2018-03-17T15:59:55.919Z,36.43
2018-03-17T16:02:25.002Z,39.73
2018-03-17T16:04:53.342Z,36.87
2018-03-17T16:07:22.356Z,31.73
2018-03-17T16:09:50.754Z,39.63
2018-03-17T16:12:19.098Z,38.43
2018-03-17T16:14:47.416Z,32.83
2018-03-17T16:17:15.763Z,34.37
2018-03-17T16:19:44.187Z,41.03
2018-03-17T16:22:12.504Z,44.60
2018-03-17T16:24:40.863Z,32.77
2018-03-17T16:27:09.295Z,42.50
2018-03-17T16:29:37.625Z,37.20
2018-03-17T16:32:05.947Z,37.10
2018-03-17T16:34:34.271Z,34.13
2018-03-17T16:37:02.607Z,31.07
2018-03-17T16:39:30.936Z,31.90
2018-03-17T16:41:59.292Z,36.17
2018-03-17T16:44:27.637Z,33.10
2018-03-17T16:46:56.025Z,37.53
2018-03-17T16:49:24.350Z,33.60
2018-03-17T16:51:52.722Z,32.60
2018-03-17T16:54:21.015Z,33.83
2018-03-17T16:56:49.348Z,39.20
2018-03-17T16:59:17.692Z,32.57
2018-03-17T17:01:46.019Z,37.37
2018-03-17T17:04:14.327Z,34.00
2018-03-17T17:06:43.676Z,42.47
2018-03-17T17:09:12.041Z,40.10
2018-03-17T17:11:40.383Z,36.90
2018-03-17T17:14:08.694Z,30.83
2018-03-17T17:16:37.073Z,33.37
2018-03-17T17:19:05.385Z,35.00
2018-03-17T17:21:33.719Z,33.87
2018-03-17T17:24:02.058Z,32.43
2018-03-17T17:26:30.498Z,32.73
2018-03-17T17:28:58.872Z,50.93
2018-03-17T17:31:27.254Z,35.77
2018-03-17T17:33:55.576Z,34.60
2018-03-17T17:36:23.910Z,37.70
2018-03-17T17:38:52.277Z,47.83
2018-03-17T17:41:20.659Z,38.83
2018-03-17T17:43:49.052Z,39.60
2018-03-17T17:46:17.498Z,46.83
2018-03-17T17:48:45.879Z,38.90
2018-03-17T17:51:14.212Z,37.60
2018-03-17T17:53:42.547Z,35.47
2018-03-17T17:56:11.025Z,34.67
2018-03-17T17:58:39.398Z,37.97
2018-03-17T18:01:07.741Z,41.53
2018-03-17T18:03:36.160Z,37.30
2018-03-17T18:06:04.468Z,36.90
2018-03-17T18:08:32.810Z,41.60
2018-03-17T18:11:01.191Z,36.57
2018-03-17T18:13:29.567Z,37.97
2018-03-17T18:15:57.892Z,36.83
2018-03-17T18:18:26.334Z,38.93
2018-03-17T18:20:54.714Z,40.13
2018-03-17T18:23:23.091Z,37.17
2018-03-17T18:25:51.415Z,33.70
2018-03-17T18:28:19.843Z,41.67
2018-03-17T18:30:48.183Z,42.33
2018-03-17T18:33:16.528Z,35.33
2018-03-17T18:35:44.859Z,38.43
2018-03-17T18:38:13.205Z,44.63
2018-03-17T18:40:41.515Z,39.77
2018-03-17T18:43:09.906Z,39.20
2018-03-17T18:45:38.227Z,36.03
2018-03-17T18:48:06.596Z,37.63
2018-03-17T18:50:34.934Z,39.80
2018-03-17T18:53:03.280Z,39.87
2018-03-17T18:55:31.696Z,40.80
2018-03-17T18:58:00.028Z,36.43
2018-03-17T19:00:28.368Z,44.67
2018-03-17T19:02:56.687Z,39.37
2018-03-17T19:05:25.103Z,38.60
2018-03-17T19:07:53.512Z,39.03
2018-03-17T19:10:21.959Z,41.93
2018-03-17T19:12:50.335Z,40.83
2018-03-17T19:15:18.671Z,38.67
2018-03-17T19:17:47.066Z,38.23
2018-03-17T19:20:15.474Z,37.17
2018-03-17T19:22:43.805Z,36.50
2018-03-17T19:25:12.238Z,44.27
2018-03-17T19:27:40.562Z,42.53
2018-03-17T19:30:08.896Z,46.90
2018-03-17T19:32:37.246Z,46.07
2018-03-17T19:35:05.653Z,38.93
2018-03-17T19:37:34.020Z,35.50
2018-03-17T19:40:02.375Z,34.77
2018-03-17T19:42:30.703Z,33.53
2018-03-17T19:44:59.047Z,38.30
2018-03-17T19:47:27.371Z,36.93
2018-03-17T19:49:55.715Z,37.30
2018-03-17T19:52:24.071Z,37.03
2018-03-17T19:54:52.390Z,39.10
2018-03-17T19:57:20.707Z,33.80
2018-03-17T19:59:49.234Z,38.60
2018-03-17T20:02:17.564Z,36.17
2018-03-17T20:04:45.986Z,38.00
2018-03-17T20:07:14.340Z,32.90
2018-03-17T20:09:42.698Z,53.03
2018-03-17T20:12:11.034Z,34.67
2018-03-17T20:14:39.353Z,36.87
2018-03-17T20:17:07.684Z,36.80
2018-03-17T20:19:36.015Z,39.63
2018-03-17T20:22:04.354Z,42.97
2018-03-17T20:24:32.703Z,36.53
2018-03-17T20:27:01.048Z,34.00
2018-03-17T20:29:29.469Z,40.90
2018-03-17T20:31:57.885Z,38.43
2018-03-17T20:34:26.278Z,34.40
2018-03-17T20:36:54.635Z,37.23
2018-03-17T20:39:23.071Z,35.33
2018-03-17T20:41:51.450Z,41.73
2018-03-17T20:44:19.830Z,37.40
2018-03-17T20:46:48.156Z,38.23
2018-03-17T20:49:16.491Z,39.77
2018-03-17T20:51:44.837Z,41.00
2018-03-17T20:54:13.251Z,44.33
2018-03-17T20:56:41.601Z,36.53
2018-03-17T20:59:10.009Z,41.57
2018-03-17T21:01:38.343Z,42.10
2018-03-17T21:04:06.782Z,44.23
2018-03-17T21:06:35.122Z,35.23
2018-03-17T21:09:03.486Z,49.40
2018-03-17T21:11:31.794Z,39.30
2018-03-17T21:14:00.118Z,38.90
2018-03-17T21:16:28.538Z,42.47
2018-03-17T21:18:56.884Z,45.27
2018-03-17T21:21:25.227Z,49.57
2018-03-17T21:23:53.575Z,45.70
2018-03-17T21:26:21.897Z,44.27
2018-03-17T21:28:50.223Z,45.73
2018-03-17T21:31:18.566Z,43.70
2018-03-17T21:33:47.138Z,44.33
2018-03-17T21:36:15.459Z,44.13
2018-03-17T21:38:43.797Z,41.23
2018-03-17T21:41:12.111Z,47.30
2018-03-17T21:43:40.443Z,45.80
2018-03-17T21:46:08.847Z,39.90
2018-03-17T21:48:37.166Z,41.90
2018-03-17T21:51:05.504Z,42.77
2018-03-17T21:53:33.914Z,41.93
2018-03-17T21:56:02.282Z,40.57
2018-03-17T21:58:30.640Z,42.87
2018-03-17T22:00:58.984Z,40.17
2018-03-17T22:03:27.338Z,43.93
2018-03-17T22:05:55.673Z,40.80
2018-03-17T22:08:23.995Z,43.73
2018-03-17T22:10:52.338Z,42.13
2018-03-17T22:13:20.651Z,46.57
2018-03-17T22:15:49.009Z,43.73
2018-03-17T22:18:17.351Z,45.73
2018-03-17T22:20:45.670Z,46.47
2018-03-17T22:23:14.031Z,48.20
2018-03-17T22:25:42.414Z,48.03
2018-03-17T22:28:10.758Z,48.33
2018-03-17T22:30:39.074Z,53.33
2018-03-17T22:33:07.450Z,49.03
2018-03-17T22:35:35.776Z,55.07
2018-03-17T22:38:05.117Z,50.67
2018-03-17T22:40:33.430Z,53.43
2018-03-17T22:43:01.784Z,56.70
2018-03-17T22:45:30.163Z,55.57
2018-03-17T22:47:58.572Z,52.10
2018-03-17T22:50:26.895Z,52.30
2018-03-17T22:52:55.248Z,51.80
2018-03-17T22:55:23.567Z,56.73
2018-03-17T22:57:51.947Z,61.90
2018-03-17T23:00:20.286Z,61.77
2018-03-17T23:02:48.623Z,57.63
2018-03-17T23:05:16.954Z,63.37
2018-03-17T23:07:45.285Z,51.10
2018-03-17T23:10:14.804Z,50.13
2018-03-17T23:12:43.138Z,56.50
2018-03-17T23:15:11.457Z,56.77
2018-03-17T23:17:39.789Z,54.53
2018-03-17T23:20:08.103Z,50.67
2018-03-17T23:22:36.438Z,53.17
2018-03-17T23:25:04.831Z,51.90
2018-03-17T23:27:33.156Z,54.90
2018-03-17T23:30:01.551Z,53.13
2018-03-17T23:32:29.878Z,59.97
2018-03-17T23:34:58.259Z,56.30
2018-03-17T23:37:26.585Z,53.40
2018-03-17T23:39:54.931Z,55.90
2018-03-17T23:42:23.275Z,52.67
2018-03-17T23:44:51.638Z,54.67
2018-03-17T23:47:19.970Z,51.57
2018-03-17T23:49:48.318Z,56.27
2018-03-17T23:52:16.650Z,57.50
2018-03-17T23:54:44.977Z,55.03
2018-03-17T23:57:13.322Z,49.90
2018-03-17T23:59:41.658Z,55.17
